Time;durP1;ratioP1;P1;durP2;ratioP2;P2;SDS_P1;SDS_P2;PMS_P1;PMS_P2;Temp;Humidity;BMP_temperature;BMP_pressure;BME280_temperature;BME280_humidity;BME280_pressure;Samples;Min_cycle;Max_cycle;Signal;HPM_P1;HPM_P2
2021/03/02 00:00:13;;;;;;;;;23.00;20.00;;;;;;;;5004538;27;112761;-71
2021/03/02 00:02:41;;;;;;;;;23.33;19.33;;;;;;;;5005484;28;113741;-71
2021/03/02 00:05:08;;;;;;;;;26.33;21.67;;;;;;;;5004686;28;114171;-72
2021/03/02 00:07:35;;;;;;;;;24.67;22.33;;;;;;;;5004796;28;112482;-71
2021/03/02 00:10:03;;;;;;;;;15.00;13.67;;;;;;;;5005916;27;113455;-72
2021/03/02 00:12:29;;;;;;;;;23.00;23.00;;;;;;;;5003562;28;114107;-71
2021/03/02 00:14:56;;;;;;;;;24.67;21.33;;;;;;;;5006586;27;113142;-71
2021/03/02 00:17:25;;;;;;;;;20.67;19.00;;;;;;;;5006823;28;114121;-71
2021/03/02 00:19:55;;;;;;;;;25.67;22.00;;;;;;;;4999799;28;112704;-71
2021/03/02 00:22:23;;;;;;;;;28.67;24.00;;;;;;;;4999234;28;113481;-71
2021/03/02 00:24:50;;;;;;;;;23.33;20.00;;;;;;;;5006722;28;114075;-71
2021/03/02 00:27:17;;;;;;;;;18.00;17.67;;;;;;;;5002944;27;112111;-71
2021/03/02 00:29:43;;;;;;;;;23.00;20.00;;;;;;;;5006321;28;113651;-71
2021/03/02 00:32:10;;;;;;;;;19.67;18.33;;;;;;;;5003724;28;114106;-71
2021/03/02 00:34:36;;;;;;;;;27.33;19.67;;;;;;;;5004594;28;112080;-71
2021/03/02 00:37:02;;;;;;;;;19.00;18.00;;;;;;;;5008944;27;113684;-72
2021/03/02 00:39:28;;;;;;;;;29.33;22.67;;;;;;;;5003680;28;112191;-71
2021/03/02 00:41:54;;;;;;;;;26.33;21.33;;;;;;;;5005967;28;114127;-72
2021/03/02 00:44:20;;;;;;;;;25.00;21.00;;;;;;;;5002040;28;114641;-71
2021/03/02 00:46:46;;;;;;;;;24.67;20.33;;;;;;;;5005931;28;112064;-71
2021/03/02 00:49:12;;;;;;;;;29.00;25.33;;;;;;;;5004138;27;113495;-71
2021/03/02 00:51:38;;;;;;;;;22.33;19.00;;;;;;;;5003945;28;114350;-71
2021/03/02 00:54:05;;;;;;;;;19.00;17.00;;;;;;;;5004644;27;111989;-71
2021/03/02 00:56:31;;;;;;;;;22.00;18.00;;;;;;;;4999754;27;112418;-71
2021/03/02 00:58:57;;;;;;;;;19.00;17.33;;;;;;;;5008900;27;112230;-71
2021/03/02 01:01:23;;;;;;;;;24.33;19.00;;;;;;;;5003194;28;113376;-69
2021/03/02 01:03:49;;;;;;;;;26.67;21.00;;;;;;;;4997764;28;114003;-71
2021/03/02 01:06:15;;;;;;;;;21.67;21.00;;;;;;;;5005230;28;112384;-71
2021/03/02 01:08:42;;;;;;;;;24.33;18.00;;;;;;;;5003709;27;113684;-70
2021/03/02 01:11:08;;;;;;;;;23.33;19.33;;;;;;;;5003804;28;114259;-70
2021/03/02 01:13:34;;;;;;;;;22.67;17.67;;;;;;;;5004565;28;112335;-71
2021/03/02 01:16:00;;;;;;;;;22.00;19.67;;;;;;;;5003188;28;113442;-71
2021/03/02 01:18:26;;;;;;;;;18.67;18.00;;;;;;;;5009296;27;114040;-71
2021/03/02 01:20:53;;;;;;;;;20.33;17.00;;;;;;;;5002206;28;113575;-71
2021/03/02 01:23:19;;;;;;;;;20.00;17.00;;;;;;;;4997739;28;114152;-71
2021/03/02 01:25:45;;;;;;;;;22.67;17.33;;;;;;;;4996808;28;112214;-71
2021/03/02 01:28:12;;;;;;;;;18.67;16.67;;;;;;;;5003988;28;113626;-71
2021/03/02 01:30:38;;;;;;;;;24.33;19.33;;;;;;;;5000164;28;113338;-71
2021/03/02 01:33:05;;;;;;;;;14.00;14.00;;;;;;;;5007011;28;111804;-71
2021/03/02 01:35:32;;;;;;;;;23.33;18.67;;;;;;;;5007346;28;113636;-71
2021/03/02 01:37:58;;;;;;;;;17.00;13.67;;;;;;;;5005498;28;114197;-71
2021/03/02 01:40:24;;;;;;;;;20.67;18.67;;;;;;;;5013033;27;111944;-71
2021/03/02 01:42:50;;;;;;;;;21.00;13.33;;;;;;;;5000901;28;114276;-71
2021/03/02 01:45:17;;;;;;;;;20.00;17.33;;;;;;;;5008137;28;112053;-71
2021/03/02 01:47:44;;;;;;;;;21.33;17.67;;;;;;;;5006834;27;113383;-71
2021/03/02 01:50:12;;;;;;;;;22.00;16.33;;;;;;;;5006678;28;113504;-71
2021/03/02 01:52:38;;;;;;;;;20.67;16.00;;;;;;;;5007059;27;111985;-71
2021/03/02 01:55:05;;;;;;;;;21.33;16.00;;;;;;;;5000572;28;112399;-71
2021/03/02 01:57:31;;;;;;;;;24.00;20.33;;;;;;;;5006907;28;114795;-70
2021/03/02 01:59:57;;;;;;;;;20.33;16.00;;;;;;;;5006088;28;111934;-72
2021/03/02 02:02:29;;;;;;;;;22.67;18.67;;;;;;;;5012007;27;113657;-70
2021/03/02 02:04:56;;;;;;;;;19.33;16.00;;;;;;;;5005496;28;112534;-70
2021/03/02 02:07:27;;;;;;;;;21.00;19.67;;;;;;;;5009635;27;113416;-70
2021/03/02 02:09:57;;;;;;;;;16.67;16.00;;;;;;;;5001246;28;114634;-71
2021/03/02 02:12:25;;;;;;;;;18.33;16.00;;;;;;;;5002251;28;112052;-71
2021/03/02 02:14:53;;;;;;;;;16.33;16.33;;;;;;;;5008462;27;114214;-71
2021/03/02 02:17:21;;;;;;;;;22.33;17.00;;;;;;;;5000749;28;114688;-71
2021/03/02 02:19:50;;;;;;;;;17.00;16.00;;;;;;;;5008669;27;111927;-70
2021/03/02 02:22:43;;;;;;;;;16.33;14.67;;;;;;;;5004578;27;113787;-70
2021/03/02 02:25:19;;;;;;;;;19.67;17.33;;;;;;;;5008722;28;114020;-70
2021/03/02 02:27:47;;;;;;;;;20.00;16.00;;;;;;;;5005358;27;113773;-71
2021/03/02 02:30:14;;;;;;;;;17.33;13.67;;;;;;;;5007179;28;114663;-71
2021/03/02 02:32:45;;;;;;;;;20.33;13.00;;;;;;;;5005618;27;112106;-71
2021/03/02 02:35:12;;;;;;;;;19.33;16.00;;;;;;;;5007145;28;113903;-71
2021/03/02 02:37:39;;;;;;;;;19.00;13.67;;;;;;;;4999487;28;112900;-70
2021/03/02 02:40:05;;;;;;;;;12.33;12.00;;;;;;;;5006577;28;112052;-71
2021/03/02 02:42:32;;;;;;;;;16.00;13.67;;;;;;;;5008386;27;114077;-71
2021/03/02 02:44:59;;;;;;;;;16.00;15.33;;;;;;;;5007240;27;114068;-72
2021/03/02 02:47:26;;;;;;;;;14.33;13.67;;;;;;;;5008668;28;112114;-70
2021/03/02 02:49:53;;;;;;;;;19.67;14.67;;;;;;;;5007024;27;114021;-71
2021/03/02 02:52:19;;;;;;;;;19.00;15.33;;;;;;;;5004750;28;112057;-79
2021/03/02 02:54:46;;;;;;;;;18.00;14.33;;;;;;;;5008122;28;113632;-72
2021/03/02 02:57:14;;;;;;;;;14.67;14.67;;;;;;;;5004662;27;114158;-76
2021/03/02 02:59:41;;;;;;;;;18.33;16.00;;;;;;;;5007436;28;112256;-72
2021/03/02 03:02:11;;;;;;;;;20.00;15.33;;;;;;;;5005547;27;113491;-71
2021/03/02 03:04:38;;;;;;;;;17.00;15.33;;;;;;;;5001452;28;114055;-71
2021/03/02 03:07:06;;;;;;;;;17.00;15.33;;;;;;;;5010531;27;112091;-71
2021/03/02 03:09:32;;;;;;;;;16.00;14.33;;;;;;;;5004904;28;114179;-71
2021/03/02 03:12:00;;;;;;;;;18.00;16.00;;;;;;;;5000380;28;112345;-71
2021/03/02 03:14:27;;;;;;;;;14.33;12.33;;;;;;;;5003977;28;113467;-71
2021/03/02 03:16:54;;;;;;;;;20.33;17.00;;;;;;;;5004438;28;114038;-71
2021/03/02 03:19:25;;;;;;;;;19.00;17.00;;;;;;;;5007624;27;112041;-71
2021/03/02 03:21:51;;;;;;;;;15.00;13.67;;;;;;;;4996635;28;112520;-71
2021/03/02 03:24:18;;;;;;;;;12.00;12.00;;;;;;;;5007134;27;114050;-70
2021/03/02 03:26:45;;;;;;;;;16.67;14.33;;;;;;;;5004629;27;112385;-71
2021/03/02 03:29:11;;;;;;;;;15.33;14.33;;;;;;;;5009276;28;113607;-71
2021/03/02 03:31:37;;;;;;;;;18.00;14.33;;;;;;;;5005522;27;112823;-71
2021/03/02 03:34:04;;;;;;;;;13.67;12.00;;;;;;;;5005549;28;113489;-71
2021/03/02 03:36:32;;;;;;;;;17.67;14.33;;;;;;;;5004798;27;114527;-70
2021/03/02 03:38:58;;;;;;;;;15.33;15.33;;;;;;;;5005342;28;111870;-70
2021/03/02 03:41:24;;;;;;;;;17.67;15.00;;;;;;;;5006595;27;113669;-69
2021/03/02 03:43:50;;;;;;;;;13.33;13.33;;;;;;;;5003399;28;114344;-70
2021/03/02 03:46:16;;;;;;;;;16.67;15.00;;;;;;;;5003541;27;112028;-70
2021/03/02 03:48:42;;;;;;;;;16.00;12.00;;;;;;;;5007334;28;113509;-71
2021/03/02 03:51:09;;;;;;;;;15.00;15.00;;;;;;;;5007451;27;114324;-70
2021/03/02 03:53:37;;;;;;;;;16.00;13.67;;;;;;;;5005091;28;113838;-71
2021/03/02 03:56:05;;;;;;;;;19.33;13.67;;;;;;;;4997183;28;113070;-70
2021/03/02 03:58:31;;;;;;;;;12.33;12.00;;;;;;;;5004811;28;112415;-70
2021/03/02 04:00:59;;;;;;;;;15.67;13.00;;;;;;;;4999633;28;112648;-71
2021/03/02 04:03:26;;;;;;;;;18.67;16.00;;;;;;;;5002765;28;113025;-71
2021/03/02 04:05:53;;;;;;;;;15.67;13.00;;;;;;;;5007259;27;112707;-71
2021/03/02 04:08:19;;;;;;;;;15.00;13.00;;;;;;;;5003772;28;113686;-70
2021/03/02 04:10:46;;;;;;;;;13.67;13.00;;;;;;;;4994985;28;113026;-70
2021/03/02 04:13:13;;;;;;;;;14.33;14.33;;;;;;;;5010565;28;112309;-70
2021/03/02 04:15:39;;;;;;;;;13.00;12.33;;;;;;;;5004087;27;114292;-70
2021/03/02 04:18:09;;;;;;;;;15.00;13.00;;;;;;;;5005062;28;112142;-69
2021/03/02 04:20:35;;;;;;;;;11.75;9.00;;;;;;;;5004698;27;113601;-71
2021/03/02 04:23:01;;;;;;;;;8.00;8.00;;;;;;;;4994534;28;113164;-70
2021/03/02 04:25:27;;;;;;;;;11.00;11.00;;;;;;;;5004016;28;112024;-70
2021/03/02 04:27:54;;;;;;;;;13.00;11.33;;;;;;;;5007679;27;113516;-70
2021/03/02 04:30:20;;;;;;;;;10.33;10.33;;;;;;;;5003137;28;114253;-70
2021/03/02 04:32:46;;;;;;;;;13.00;12.00;;;;;;;;5006703;28;111974;-70
2021/03/02 04:35:12;;;;;;;;;19.67;15.00;;;;;;;;5008026;27;113478;-70
2021/03/02 04:37:38;;;;;;;;;12.00;12.00;;;;;;;;5006427;28;112113;-70
2021/03/02 04:40:06;;;;;;;;;12.67;12.67;;;;;;;;5005186;27;113770;-68
2021/03/02 04:42:31;;;;;;;;;15.67;15.33;;;;;;;;5003081;28;114003;-69
2021/03/02 04:44:58;;;;;;;;;15.67;12.67;;;;;;;;5004775;28;112863;-69
2021/03/02 04:47:24;;;;;;;;;15.50;13.00;;;;;;;;5004713;27;112329;-70
2021/03/02 04:49:51;;;;;;;;;14.33;12.00;;;;;;;;5003307;28;113847;-70
2021/03/02 04:52:17;;;;;;;;;16.33;15.00;;;;;;;;4999444;28;111896;-70
2021/03/02 04:54:43;;;;;;;;;18.00;14.33;;;;;;;;5007166;28;113353;-70
2021/03/02 04:57:09;;;;;;;;;15.33;12.00;;;;;;;;5007935;27;113927;-69
2021/03/02 04:59:34;;;;;;;;;15.00;11.67;;;;;;;;5005168;28;113622;-69
2021/03/02 05:02:01;;;;;;;;;19.00;14.00;;;;;;;;5005036;27;114293;-70
2021/03/02 05:04:27;;;;;;;;;15.67;12.00;;;;;;;;5006119;27;111989;-71
2021/03/02 05:06:53;;;;;;;;;17.33;12.67;;;;;;;;5010458;28;113551;-71
2021/03/02 05:09:19;;;;;;;;;12.00;12.00;;;;;;;;5005772;28;114699;-70
2021/03/02 05:11:45;;;;;;;;;13.33;12.00;;;;;;;;5010115;28;111977;-70
2021/03/02 05:14:11;;;;;;;;;18.00;12.00;;;;;;;;4999700;27;113061;-70
2021/03/02 05:16:37;;;;;;;;;15.33;15.33;;;;;;;;5010047;28;114149;-71
2021/03/02 05:19:04;;;;;;;;;16.00;13.67;;;;;;;;5008295;28;113609;-71
2021/03/02 05:21:30;;;;;;;;;13.00;12.00;;;;;;;;5006999;27;114225;-71
2021/03/02 05:23:56;;;;;;;;;17.33;15.00;;;;;;;;5006603;28;111997;-71
2021/03/02 05:26:22;;;;;;;;;19.00;15.33;;;;;;;;5009672;27;113928;-70
2021/03/02 05:28:48;;;;;;;;;14.00;14.00;;;;;;;;5006117;28;114627;-71
2021/03/02 05:31:14;;;;;;;;;10.00;8.00;;;;;;;;5009383;28;112065;-72
2021/03/02 05:33:40;;;;;;;;;29.50;21.50;;;;;;;;5007009;27;113370;-70
2021/03/02 05:36:07;;;;;;;;;16.00;11.00;;;;;;;;5007303;28;114659;-70
2021/03/02 05:38:35;;;;;;;;;11.75;11.75;;;;;;;;5011952;27;112143;-70
2021/03/02 05:41:01;;;;;;;;;20.00;18.50;;;;;;;;5006986;28;114163;-72
2021/03/02 05:43:27;;;;;;;;;15.00;13.00;;;;;;;;5009402;27;111917;-74
2021/03/02 05:45:53;;;;;;;;;15.00;13.50;;;;;;;;5007066;28;113320;-73
2021/03/02 05:48:19;;;;;;;;;16.67;12.00;;;;;;;;5000927;27;114250;-73
2021/03/02 05:50:46;;;;;;;;;14.75;13.25;;;;;;;;5004582;27;112875;-73
2021/03/02 05:53:13;;;;;;;;;19.50;19.00;;;;;;;;4995907;28;113540;-72
2021/03/02 05:55:39;;;;;;;;;16.50;15.25;;;;;;;;5004559;27;114132;-74
2021/03/02 05:58:05;;;;;;;;;20.67;14.67;;;;;;;;5004629;28;112302;-71
2021/03/02 06:00:31;;;;;;;;;18.00;13.00;;;;;;;;5001976;27;114090;-73
2021/03/02 06:02:57;;;;;;;;;19.00;15.25;;;;;;;;5004320;28;112271;-71
2021/03/02 06:05:23;;;;;;;;;21.75;17.50;;;;;;;;5006906;27;113116;-72
2021/03/02 06:07:49;;;;;;;;;18.00;16.75;;;;;;;;5006213;27;114924;-72
2021/03/02 06:10:17;;;;;;;;;23.75;20.00;;;;;;;;5003492;27;112375;-73
2021/03/02 06:12:49;;;;;;;;;18.00;15.00;;;;;;;;4997369;28;113347;-73
2021/03/02 06:15:17;;;;;;;;;24.25;19.25;;;;;;;;5003782;27;114155;-74
2021/03/02 06:17:43;;;;;;;;;33.50;25.25;;;;;;;;5004561;28;112183;-74
2021/03/02 06:20:18;;;;;;;;;22.75;19.50;;;;;;;;5005254;28;113437;-77
2021/03/02 06:22:44;;;;;;;;;30.75;26.00;;;;;;;;5005869;27;114645;-75
2021/03/02 06:25:25;;;;;;;;;34.00;26.00;;;;;;;;5005638;28;113965;-74
2021/03/02 06:27:52;;;;;;;;;28.00;23.00;;;;;;;;4977817;27;114042;-73
2021/03/02 06:30:19;;;;;;;;;28.00;23.50;;;;;;;;5032720;27;112885;-74
2021/03/02 06:32:46;;;;;;;;;29.25;27.50;;;;;;;;5002766;27;114379;-72
2021/03/02 06:35:13;;;;;;;;;23.00;19.75;;;;;;;;5005611;28;114562;-74
2021/03/02 06:37:42;;;;;;;;;31.00;26.50;;;;;;;;5004501;27;114140;-71
2021/03/02 06:40:09;;;;;;;;;29.25;22.75;;;;;;;;5005029;28;114070;-73
2021/03/02 06:42:36;;;;;;;;;27.75;22.00;;;;;;;;5002900;27;114080;-73
2021/03/02 06:45:05;;;;;;;;;23.25;20.25;;;;;;;;5007907;28;111938;-72
2021/03/02 06:47:32;;;;;;;;;20.75;19.25;;;;;;;;5003623;27;114133;-72
2021/03/02 06:50:02;;;;;;;;;22.00;22.00;;;;;;;;5002776;28;112292;-73
2021/03/02 06:52:34;;;;;;;;;34.00;26.50;;;;;;;;5004194;27;113531;-73
2021/03/02 06:55:00;;;;;;;;;28.00;22.50;;;;;;;;5001044;28;114177;-73
2021/03/02 06:57:26;;;;;;;;;36.00;32.25;;;;;;;;5004129;27;112550;-75
2021/03/02 06:59:53;;;;;;;;;24.25;22.50;;;;;;;;5002892;28;113730;-72
2021/03/02 07:02:32;;;;;;;;;29.50;25.25;;;;;;;;4998999;28;113146;-74
2021/03/02 07:05:04;;;;;;;;;26.00;25.50;;;;;;;;5001842;28;112811;-75
2021/03/02 07:07:30;;;;;;;;;28.75;24.00;;;;;;;;5009011;28;113588;-72
2021/03/02 07:09:56;;;;;;;;;22.25;20.00;;;;;;;;5001338;28;112352;-71
2021/03/02 07:12:23;;;;;;;;;30.75;22.75;;;;;;;;5005730;28;113409;-70
2021/03/02 07:14:49;;;;;;;;;26.50;25.00;;;;;;;;5000124;28;114067;-70
2021/03/02 07:17:15;;;;;;;;;21.50;21.50;;;;;;;;5008595;28;112038;-71
2021/03/02 07:19:44;;;;;;;;;26.00;20.50;;;;;;;;5005985;27;113771;-73
2021/03/02 07:22:11;;;;;;;;;24.50;24.50;;;;;;;;5006576;28;114046;-81
2021/03/02 07:24:39;;;;;;;;;27.00;23.00;;;;;;;;5005702;27;111883;-72
2021/03/02 07:27:07;;;;;;;;;30.50;27.50;;;;;;;;5006087;28;113862;-71
2021/03/02 07:29:33;;;;;;;;;23.25;17.50;;;;;;;;5004102;28;112031;-72
2021/03/02 07:32:02;;;;;;;;;27.50;26.00;;;;;;;;5006246;27;113779;-70
2021/03/02 07:34:28;;;;;;;;;34.25;27.75;;;;;;;;5001762;28;114105;-73
2021/03/02 07:36:57;;;;;;;;;37.00;28.50;;;;;;;;5005120;28;112003;-70
2021/03/02 07:39:25;;;;;;;;;33.50;27.75;;;;;;;;5000449;27;113766;-70
2021/03/02 07:41:52;;;;;;;;;31.67;30.33;;;;;;;;5006030;28;114320;-72
2021/03/02 07:44:18;;;;;;;;;32.33;31.00;;;;;;;;4998179;28;112154;-72
2021/03/02 07:46:48;;;;;;;;;34.50;26.25;;;;;;;;5005391;28;113538;-71
2021/03/02 07:49:35;;;;;;;;;32.00;28.00;;;;;;;;5006968;27;114069;-69
2021/03/02 07:52:21;;;;;;;;;31.67;28.33;;;;;;;;5001781;28;113507;-70
2021/03/02 07:54:48;;;;;;;;;36.00;26.33;;;;;;;;5001958;27;114421;-68
2021/03/02 07:57:23;;;;;;;;;37.00;33.67;;;;;;;;5005293;28;112051;-66
2021/03/02 08:00:22;;;;;;;;;29.67;27.00;;;;;;;;4999397;28;114295;-68
2021/03/02 08:03:02;;;;;;;;;36.00;28.67;;;;;;;;4997769;28;116414;-70
2021/03/02 08:05:30;;;;;;;;;35.33;31.33;;;;;;;;5000177;28;111904;-68
2021/03/02 08:08:11;;;;;;;;;27.67;25.00;;;;;;;;5006203;27;113478;-67
2021/03/02 08:10:38;;;;;;;;;32.00;28.00;;;;;;;;5003604;28;115759;-68
2021/03/02 08:13:18;;;;;;;;;24.33;21.00;;;;;;;;5008490;27;112502;-67
2021/03/02 08:15:44;;;;;;;;;41.67;29.00;;;;;;;;5003849;28;114177;-68
2021/03/02 08:18:26;;;;;;;;;29.67;25.67;;;;;;;;5013178;27;112008;-69
2021/03/02 08:21:08;;;;;;;;;38.67;28.67;;;;;;;;5001586;28;112642;-68
2021/03/02 08:23:47;;;;;;;;;34.00;28.67;;;;;;;;5010028;28;114197;-68
2021/03/02 08:26:24;;;;;;;;;34.33;28.00;;;;;;;;5007949;27;114377;-69
2021/03/02 08:29:06;;;;;;;;;38.67;33.33;;;;;;;;5009509;28;112587;-68
2021/03/02 08:31:35;;;;;;;;;51.00;42.00;;;;;;;;5011508;27;114701;-68
2021/03/02 08:34:02;;;;;;;;;44.33;37.00;;;;;;;;5013630;27;112190;-69
2021/03/02 08:36:28;;;;;;;;;49.00;41.67;;;;;;;;5015537;27;113542;-68
2021/03/02 08:38:54;;;;;;;;;48.25;40.75;;;;;;;;5015674;27;112479;-70
2021/03/02 08:41:28;;;;;;;;;47.00;39.50;;;;;;;;5009874;28;113623;-69
2021/03/02 08:43:54;;;;;;;;;43.33;35.67;;;;;;;;5012716;27;112891;-70
2021/03/02 08:46:23;;;;;;;;;46.33;39.67;;;;;;;;5015741;27;112544;-71
2021/03/02 08:48:49;;;;;;;;;46.33;39.00;;;;;;;;5003433;28;113506;-71
2021/03/02 08:51:18;;;;;;;;;44.33;38.33;;;;;;;;5007126;27;114327;-70
2021/03/02 08:53:47;;;;;;;;;46.00;37.00;;;;;;;;5006457;28;112240;-70
2021/03/02 08:56:18;;;;;;;;;39.67;36.33;;;;;;;;5005330;28;113920;-69
2021/03/02 08:58:45;;;;;;;;;37.33;36.00;;;;;;;;5009519;28;114458;-67
2021/03/02 09:01:12;;;;;;;;;38.00;36.00;;;;;;;;5004998;28;113693;-67
2021/03/02 09:03:38;;;;;;;;;39.67;37.33;;;;;;;;5005612;28;114114;-67
2021/03/02 09:06:14;;;;;;;;;49.33;41.00;;;;;;;;5001921;27;112092;-69
2021/03/02 09:08:41;;;;;;;;;50.67;40.33;;;;;;;;5006000;28;114207;-70
2021/03/02 09:11:07;;;;;;;;;50.33;40.00;;;;;;;;5005233;28;114237;-70
2021/03/02 09:13:34;;;;;;;;;44.00;36.75;;;;;;;;5008723;27;113859;-70
2021/03/02 09:16:01;;;;;;;;;42.25;35.75;;;;;;;;5013940;27;113555;-70
2021/03/02 09:18:27;;;;;;;;;47.00;37.50;;;;;;;;5014275;27;114568;-71
2021/03/02 09:20:54;;;;;;;;;37.50;34.50;;;;;;;;5015541;27;112148;-70
2021/03/02 09:23:20;;;;;;;;;46.50;38.75;;;;;;;;5004986;28;114889;-69
2021/03/02 09:25:46;;;;;;;;;47.75;39.00;;;;;;;;5008678;28;112136;-70
2021/03/02 09:28:15;;;;;;;;;38.75;33.75;;;;;;;;5006734;27;113659;-70
2021/03/02 09:30:42;;;;;;;;;34.50;31.50;;;;;;;;5007801;28;114057;-70
2021/03/02 09:33:09;;;;;;;;;24.75;22.50;;;;;;;;5007052;27;112785;-70
2021/03/02 09:35:36;;;;;;;;;31.75;29.00;;;;;;;;5007919;28;113764;-71
2021/03/02 09:38:02;;;;;;;;;29.00;28.25;;;;;;;;5003938;27;114658;-69
2021/03/02 09:40:28;;;;;;;;;31.75;29.50;;;;;;;;5011962;27;112231;-69
2021/03/02 09:42:55;;;;;;;;;37.25;31.50;;;;;;;;5005329;28;114692;-69
2021/03/02 09:45:22;;;;;;;;;31.50;29.75;;;;;;;;5001545;27;112707;-68
2021/03/02 09:47:56;;;;;;;;;31.00;28.75;;;;;;;;5005061;28;113681;-68
2021/03/02 09:50:25;;;;;;;;;32.50;27.00;;;;;;;;5001399;27;114061;-68
2021/03/02 09:52:51;;;;;;;;;32.33;27.33;;;;;;;;5008764;27;112352;-69
2021/03/02 09:55:22;;;;;;;;;29.00;27.67;;;;;;;;4997567;28;112842;-69
2021/03/02 09:57:52;;;;;;;;;30.67;27.67;;;;;;;;5001069;28;114223;-68
2021/03/02 10:00:19;;;;;;;;;27.33;26.67;;;;;;;;5001367;28;112294;-68
2021/03/02 10:02:49;;;;;;;;;22.00;21.00;;;;;;;;5010807;28;113690;-69
2021/03/02 10:05:26;;;;;;;;;31.00;27.00;;;;;;;;5001583;28;112000;-68
2021/03/02 10:07:54;;;;;;;;;29.33;26.33;;;;;;;;5003620;28;113906;-69
2021/03/02 10:10:33;;;;;;;;;25.33;24.33;;;;;;;;5004266;27;115162;-68
2021/03/02 10:12:59;;;;;;;;;25.67;25.67;;;;;;;;4997594;28;112198;-68
2021/03/02 10:15:25;;;;;;;;;21.00;20.00;;;;;;;;4997848;27;113486;-68
2021/03/02 10:17:51;;;;;;;;;25.67;24.00;;;;;;;;4993711;28;112590;-68
2021/03/02 10:20:17;;;;;;;;;22.00;20.67;;;;;;;;4995628;28;112060;-68
2021/03/02 10:22:43;;;;;;;;;15.00;15.00;;;;;;;;4997275;28;113440;-68
2021/03/02 10:25:11;;;;;;;;;23.33;21.00;;;;;;;;5000648;28;115749;-68
2021/03/02 10:27:42;;;;;;;;;22.33;21.67;;;;;;;;4998312;28;113763;-70
2021/03/02 10:30:08;;;;;;;;;21.00;20.00;;;;;;;;4998484;28;114391;-71
2021/03/02 10:32:34;;;;;;;;;20.33;19.00;;;;;;;;4996945;28;113137;-70
2021/03/02 10:35:00;;;;;;;;;16.67;16.67;;;;;;;;4997191;28;113729;-70
2021/03/02 10:37:26;;;;;;;;;18.00;17.00;;;;;;;;4996633;27;114021;-70
2021/03/02 10:39:52;;;;;;;;;16.50;13.00;;;;;;;;4996114;28;113382;-69
2021/03/02 10:42:20;;;;;;;;;11.50;11.00;;;;;;;;4999457;27;113983;-69
2021/03/02 10:44:46;;;;;;;;;13.25;13.00;;;;;;;;4996469;28;114207;-69
2021/03/02 10:47:12;;;;;;;;;11.50;11.00;;;;;;;;4992295;28;112016;-69
2021/03/02 10:49:38;;;;;;;;;9.25;9.00;;;;;;;;4997791;28;113767;-70
2021/03/02 10:52:04;;;;;;;;;9.00;8.00;;;;;;;;4997866;28;112522;-68
2021/03/02 10:54:30;;;;;;;;;8.75;6.25;;;;;;;;4995564;28;115412;-68
2021/03/02 10:56:56;;;;;;;;;7.00;6.50;;;;;;;;5002441;28;114237;-68
2021/03/02 10:59:23;;;;;;;;;7.75;7.75;;;;;;;;5006962;27;111997;-69
2021/03/02 11:01:49;;;;;;;;;8.00;7.50;;;;;;;;5003118;28;113669;-69
2021/03/02 11:04:15;;;;;;;;;7.75;7.75;;;;;;;;5006318;28;114946;-69
2021/03/02 11:06:41;;;;;;;;;7.00;6.50;;;;;;;;5005230;27;112794;-69
2021/03/02 11:09:07;;;;;;;;;7.75;7.00;;;;;;;;5013661;28;113380;-68
2021/03/02 11:11:34;;;;;;;;;9.00;8.00;;;;;;;;5006457;27;111943;-69
2021/03/02 11:14:00;;;;;;;;;9.67;9.67;;;;;;;;4998083;28;112714;-69
2021/03/02 11:16:27;;;;;;;;;8.00;8.00;;;;;;;;4998731;28;114173;-69
2021/03/02 11:18:53;;;;;;;;;9.33;6.00;;;;;;;;4993855;28;111891;-69
2021/03/02 11:21:20;;;;;;;;;7.00;7.00;;;;;;;;4998962;27;113520;-69
2021/03/02 11:23:45;;;;;;;;;7.00;7.00;;;;;;;;4997050;28;113832;-69
2021/03/02 11:26:11;;;;;;;;;7.67;6.00;;;;;;;;4991380;28;112002;-69
2021/03/02 11:28:37;;;;;;;;;8.00;6.00;;;;;;;;4999161;28;113411;-69
2021/03/02 11:31:03;;;;;;;;;5.00;4.00;;;;;;;;5014957;28;112149;-69
2021/03/02 11:33:30;;;;;;;;;6.67;6.67;;;;;;;;5010887;28;113998;-69
2021/03/02 11:35:56;;;;;;;;;7.33;6.33;;;;;;;;5011350;27;114093;-69
2021/03/02 11:38:22;;;;;;;;;8.33;8.00;;;;;;;;5012859;27;113397;-69
2021/03/02 11:40:49;;;;;;;;;13.50;11.75;;;;;;;;5010837;28;114760;-69
2021/03/02 11:43:15;;;;;;;;;14.25;13.50;;;;;;;;5011615;28;113977;-70
2021/03/02 11:45:41;;;;;;;;;12.00;11.50;;;;;;;;5009612;27;111811;-70
2021/03/02 11:48:08;;;;;;;;;14.00;14.00;;;;;;;;5005275;27;113681;-70
2021/03/02 11:50:35;;;;;;;;;12.00;10.50;;;;;;;;5008181;28;114038;-69
2021/03/02 11:53:01;;;;;;;;;16.75;15.75;;;;;;;;5006605;27;113754;-70
2021/03/02 11:55:27;;;;;;;;;10.00;9.75;;;;;;;;5003782;28;114612;-70
2021/03/02 11:57:53;;;;;;;;;10.75;9.50;;;;;;;;5006474;28;113432;-70
2021/03/02 12:00:20;;;;;;;;;10.00;9.00;;;;;;;;5006689;27;114279;-69
2021/03/02 12:02:46;;;;;;;;;7.00;6.00;;;;;;;;5003551;27;114368;-69
2021/03/02 12:05:13;;;;;;;;;7.25;5.00;;;;;;;;5006410;28;112442;-68
2021/03/02 12:07:40;;;;;;;;;5.75;5.75;;;;;;;;5009817;27;113637;-69
2021/03/02 12:10:07;;;;;;;;;6.50;5.50;;;;;;;;5010559;27;114608;-68
2021/03/02 12:12:33;;;;;;;;;5.00;5.00;;;;;;;;5012493;28;111958;-69
2021/03/02 12:14:59;;;;;;;;;6.75;5.25;;;;;;;;5004684;27;113700;-69
2021/03/02 12:17:25;;;;;;;;;5.75;5.75;;;;;;;;5003369;28;111817;-69
2021/03/02 12:19:51;;;;;;;;;4.75;4.75;;;;;;;;5007305;27;113387;-69
2021/03/02 12:22:17;;;;;;;;;4.50;3.00;;;;;;;;4993924;28;113803;-69
2021/03/02 12:24:45;;;;;;;;;8.00;8.00;;;;;;;;5006530;28;113041;-69
2021/03/02 12:27:11;;;;;;;;;6.75;6.75;;;;;;;;5004655;27;114197;-69
2021/03/02 12:29:37;;;;;;;;;4.75;4.75;;;;;;;;5002865;28;115149;-69
2021/03/02 12:32:03;;;;;;;;;6.50;5.25;;;;;;;;5004678;28;111971;-69
2021/03/02 12:34:29;;;;;;;;;4.25;4.00;;;;;;;;5008591;27;113703;-68
2021/03/02 12:36:56;;;;;;;;;3.75;3.75;;;;;;;;5003984;28;111904;-69
2021/03/02 12:39:22;;;;;;;;;4.25;3.75;;;;;;;;5006573;28;113847;-69
2021/03/02 12:41:48;;;;;;;;;5.00;5.00;;;;;;;;4997882;28;114012;-68
2021/03/02 12:44:14;;;;;;;;;5.00;3.00;;;;;;;;5003832;28;111999;-68
2021/03/02 12:46:40;;;;;;;;;5.75;3.75;;;;;;;;5006364;28;113984;-70
2021/03/02 12:49:06;;;;;;;;;5.75;4.00;;;;;;;;5002437;27;113908;-71
2021/03/02 12:51:32;;;;;;;;;5.75;5.75;;;;;;;;5004824;27;112199;-70
2021/03/02 12:53:58;;;;;;;;;5.00;5.00;;;;;;;;4997215;27;112589;-71
2021/03/02 12:56:26;;;;;;;;;4.00;4.00;;;;;;;;4998729;28;112781;-71
2021/03/02 12:58:53;;;;;;;;;4.50;4.25;;;;;;;;5002626;27;113714;-72
2021/03/02 13:01:19;;;;;;;;;6.75;6.75;;;;;;;;4997618;28;114364;-71
2021/03/02 13:03:45;;;;;;;;;6.50;5.00;;;;;;;;5005272;28;113726;-71
2021/03/02 13:06:11;;;;;;;;;5.50;4.75;;;;;;;;5002109;27;113792;-71
2021/03/02 13:08:37;;;;;;;;;5.00;5.00;;;;;;;;5002118;28;114190;-71
2021/03/02 13:11:04;;;;;;;;;3.25;2.75;;;;;;;;5002990;28;112319;-71
2021/03/02 13:13:33;;;;;;;;;6.75;5.25;;;;;;;;5003130;28;113629;-70
2021/03/02 13:16:01;;;;;;;;;4.00;4.00;;;;;;;;5002472;27;114121;-71
2021/03/02 13:18:27;;;;;;;;;6.00;5.00;;;;;;;;5005127;28;111977;-70
2021/03/02 13:20:56;;;;;;;;;7.00;6.00;;;;;;;;5005501;27;114116;-70
2021/03/02 13:23:22;;;;;;;;;6.25;5.75;;;;;;;;5004842;28;111878;-70
2021/03/02 13:25:48;;;;;;;;;5.50;4.50;;;;;;;;5003525;28;114048;-70
2021/03/02 13:28:14;;;;;;;;;4.50;4.50;;;;;;;;5011538;28;113997;-70
2021/03/02 13:30:40;;;;;;;;;9.25;6.00;;;;;;;;5010326;27;111837;-71
2021/03/02 13:33:10;;;;;;;;;6.75;5.00;;;;;;;;5010371;28;113787;-71
2021/03/02 13:35:36;;;;;;;;;6.25;6.00;;;;;;;;5007472;27;114394;-71
2021/03/02 18:02:25;;;;;;;;;22.00;20.25;;;;;;;;5070001;27;922933;-76
2021/03/02 18:04:51;;;;;;;;;19.00;18.50;;;;;;;;5082160;27;114093;-79
2021/03/02 18:07:18;;;;;;;;;24.50;21.50;;;;;;;;5079384;27;112070;-81
2021/03/02 18:09:44;;;;;;;;;21.50;20.50;;;;;;;;5080243;27;113548;-77
2021/03/02 18:12:11;;;;;;;;;23.75;22.50;;;;;;;;5083382;27;114366;-79
2021/03/02 18:14:38;;;;;;;;;22.50;20.00;;;;;;;;5079999;27;111797;-78
2021/03/02 18:17:04;;;;;;;;;25.25;24.00;;;;;;;;5082714;27;113694;-75
2021/03/02 18:19:31;;;;;;;;;25.75;20.75;;;;;;;;5079405;27;113962;-77
2021/03/02 18:21:57;;;;;;;;;26.50;23.25;;;;;;;;5090465;27;115481;-79
2021/03/02 18:24:23;;;;;;;;;23.25;23.00;;;;;;;;5083765;27;113925;-78
2021/03/02 18:26:49;;;;;;;;;24.75;21.25;;;;;;;;5083781;27;111893;-79
2021/03/02 18:29:15;;;;;;;;;28.75;24.00;;;;;;;;5079202;27;113523;-80
2021/03/02 18:31:41;;;;;;;;;28.75;23.50;;;;;;;;5081592;27;114194;-81
2021/03/02 18:34:07;;;;;;;;;25.75;24.00;;;;;;;;5082153;27;112285;-79